createdAt,value
2018-07-31T00:02:14.117Z,95499.00
2018-07-31T00:04:45.530Z,95502.00
2018-07-31T00:07:17.749Z,95502.00
2018-07-31T00:09:49.569Z,95504.00
2018-07-31T00:12:21.349Z,95496.00
2018-07-31T00:14:53.243Z,95496.00
2018-07-31T00:17:25.017Z,95500.00
2018-07-31T00:19:56.792Z,95500.00
2018-07-31T00:22:28.457Z,95496.00
2018-07-31T00:25:00.213Z,95502.00
2018-07-31T00:27:32.537Z,95508.00
2018-07-31T00:30:05.548Z,95506.00
2018-07-31T00:32:37.569Z,95504.00
2018-07-31T00:35:09.831Z,95505.00
2018-07-31T00:37:41.617Z,95506.00
2018-07-31T00:40:14.039Z,95505.00
2018-07-31T00:42:46.096Z,95502.00
2018-07-31T00:45:17.996Z,95504.00
2018-07-31T00:47:49.757Z,95508.00
2018-07-31T00:50:21.890Z,95510.00
2018-07-31T00:52:53.657Z,95504.00
2018-07-31T00:55:25.592Z,95507.00
2018-07-31T00:57:57.339Z,95506.00
2018-07-31T01:00:29.151Z,95502.00
2018-07-31T01:03:00.949Z,95501.00
2018-07-31T01:05:32.905Z,95501.00
2018-07-31T01:08:05.031Z,95501.00
2018-07-31T01:10:37.117Z,95500.00
2018-07-31T01:13:09.440Z,95499.00
2018-07-31T01:15:41.217Z,95496.00
2018-07-31T01:18:13.497Z,95493.00
2018-07-31T01:20:49.289Z,95493.00
2018-07-31T01:23:21.237Z,95494.00
2018-07-31T01:25:53.101Z,95492.00
2018-07-31T01:28:24.901Z,95494.00
2018-07-31T01:30:56.718Z,95496.00
2018-07-31T01:33:28.529Z,95493.00
2018-07-31T01:36:00.540Z,95489.00
2018-07-31T01:38:33.097Z,95490.00
2018-07-31T01:41:05.612Z,95495.00
2018-07-31T01:43:37.394Z,95491.00
2018-07-31T01:46:09.278Z,95497.00
2018-07-31T01:48:41.089Z,95495.00
2018-07-31T01:51:12.961Z,95498.00
2018-07-31T01:53:44.757Z,95497.00
2018-07-31T01:56:16.589Z,95499.00
2018-07-31T01:58:48.996Z,95496.00
2018-07-31T02:01:21.036Z,95497.00
2018-07-31T02:03:52.669Z,95497.00
2018-07-31T02:06:27.049Z,95490.00
2018-07-31T02:08:58.836Z,95490.00
2018-07-31T02:11:30.676Z,95487.00
2018-07-31T02:14:02.556Z,95492.00
2018-07-31T02:16:34.389Z,95492.00
2018-07-31T02:19:06.463Z,95488.00
2018-07-31T02:21:38.337Z,95491.00
2018-07-31T02:24:10.157Z,95498.00
2018-07-31T02:26:42.250Z,95492.00
2018-07-31T02:29:14.194Z,95485.00
2018-07-31T02:31:46.041Z,95490.00
2018-07-31T02:34:17.837Z,95493.00
2018-07-31T02:36:49.721Z,95494.00
2018-07-31T02:39:21.537Z,95489.00
2018-07-31T02:41:53.273Z,95494.00
2018-07-31T02:44:25.060Z,95493.00
2018-07-31T02:46:57.044Z,95494.00
2018-07-31T02:49:28.906Z,95492.00
2018-07-31T02:52:00.327Z,95490.00
2018-07-31T02:54:31.525Z,95498.00
2018-07-31T02:57:03.167Z,95494.00
2018-07-31T02:59:34.538Z,95489.00
2018-07-31T03:02:06.925Z,95491.00
2018-07-31T03:04:38.853Z,95490.00
2018-07-31T03:07:10.747Z,95483.00
2018-07-31T03:09:42.381Z,95489.00
2018-07-31T03:12:14.113Z,95491.00
2018-07-31T03:14:45.966Z,95494.00
2018-07-31T03:17:17.849Z,95501.00
2018-07-31T03:19:49.626Z,95495.00
2018-07-31T03:22:21.477Z,95492.00
2018-07-31T03:24:53.289Z,95493.00
2018-07-31T03:27:24.814Z,95493.00
2018-07-31T03:29:56.579Z,95487.00
2018-07-31T03:32:28.033Z,95493.00
2018-07-31T03:34:59.586Z,95496.00
2018-07-31T03:37:31.014Z,95494.00
2018-07-31T03:40:02.581Z,95493.00
2018-07-31T03:42:34.446Z,95489.00
2018-07-31T03:45:07.289Z,95490.00
2018-07-31T03:47:39.128Z,95490.00
2018-07-31T03:50:11.123Z,95491.00
2018-07-31T03:52:43.023Z,95494.00
2018-07-31T03:55:15.058Z,95495.00
2018-07-31T03:57:46.534Z,95498.00
2018-07-31T04:00:18.120Z,95504.00
2018-07-31T04:02:49.945Z,95505.00
2018-07-31T04:05:21.891Z,95507.00
2018-07-31T04:07:53.798Z,95504.00
2018-07-31T04:10:25.178Z,95506.00
2018-07-31T04:12:56.838Z,95520.00
2018-07-31T04:15:28.735Z,95525.00
2018-07-31T04:18:00.610Z,95516.00
2018-07-31T04:20:31.978Z,95511.00
2018-07-31T04:23:03.654Z,95511.00
2018-07-31T04:25:35.575Z,95511.00
2018-07-31T04:28:07.518Z,95513.00
2018-07-31T04:30:39.386Z,95511.00
2018-07-31T04:33:11.322Z,95508.00
2018-07-31T04:35:43.152Z,95511.00
2018-07-31T04:38:15.139Z,95517.00
2018-07-31T04:40:46.823Z,95507.00
2018-07-31T04:43:18.270Z,95510.00
2018-07-31T04:45:49.938Z,95504.00
2018-07-31T04:48:21.340Z,95508.00
2018-07-31T04:50:52.942Z,95508.00
2018-07-31T04:53:24.883Z,95514.00
2018-07-31T04:55:56.252Z,95514.00
2018-07-31T04:58:27.954Z,95514.00
2018-07-31T05:00:59.851Z,95517.00
2018-07-31T05:03:31.753Z,95518.00
2018-07-31T05:06:03.103Z,95516.00
2018-07-31T05:08:34.239Z,95518.00
2018-07-31T05:11:05.455Z,95519.00
2018-07-31T05:13:37.074Z,95517.00
2018-07-31T05:16:08.516Z,95518.00
2018-07-31T05:18:39.787Z,95513.00
2018-07-31T05:21:11.425Z,95520.00
2018-07-31T05:23:43.276Z,95517.00
2018-07-31T05:26:15.178Z,95519.00
2018-07-31T05:28:47.022Z,95529.00
2018-07-31T05:31:18.830Z,95532.00
2018-07-31T05:33:50.520Z,95524.00
2018-07-31T05:36:21.759Z,95527.00
2018-07-31T05:38:53.405Z,95527.00
2018-07-31T05:41:25.439Z,95526.00
2018-07-31T05:43:58.079Z,95527.00
2018-07-31T05:46:30.002Z,95527.00
2018-07-31T05:49:02.053Z,95531.00
2018-07-31T05:51:33.721Z,95529.00
2018-07-31T05:54:05.474Z,95527.00
2018-07-31T05:56:37.355Z,95523.00
2018-07-31T05:59:09.018Z,95528.00
2018-07-31T06:01:40.911Z,95526.00
2018-07-31T06:04:12.424Z,95526.00
2018-07-31T06:06:44.287Z,95518.00
2018-07-31T06:09:16.238Z,95527.00
2018-07-31T06:11:48.267Z,95531.00
2018-07-31T06:14:19.749Z,95529.00
2018-07-31T06:16:51.510Z,95526.00
2018-07-31T06:19:23.532Z,95523.00
2018-07-31T06:21:54.971Z,95525.00
2018-07-31T06:24:26.758Z,95520.00
2018-07-31T06:26:58.227Z,95519.00
2018-07-31T06:29:29.966Z,95520.00
2018-07-31T06:32:01.928Z,95519.00
2018-07-31T06:34:34.167Z,95513.00
2018-07-31T06:37:06.179Z,95519.00
2018-07-31T06:39:38.198Z,95517.00
2018-07-31T06:42:10.642Z,95525.00
2018-07-31T06:44:42.696Z,95518.00
2018-07-31T06:47:14.643Z,95515.00
2018-07-31T06:49:46.694Z,95517.00
2018-07-31T06:52:18.587Z,95517.00
2018-07-31T06:54:50.665Z,95517.00
2018-07-31T06:57:22.247Z,95510.00
2018-07-31T06:59:54.018Z,95514.00
2018-07-31T07:02:26.160Z,95509.00
2018-07-31T07:04:58.184Z,95505.00
2018-07-31T07:07:30.166Z,95508.00
2018-07-31T07:10:01.666Z,95512.00
2018-07-31T07:12:32.854Z,95514.00
2018-07-31T07:15:04.651Z,95510.00
2018-07-31T07:17:36.827Z,95508.00
2018-07-31T07:20:08.928Z,95505.00
2018-07-31T07:22:41.113Z,95505.00
2018-07-31T07:25:13.170Z,95501.00
2018-07-31T07:27:45.063Z,95498.00
2018-07-31T07:30:17.035Z,95501.00
2018-07-31T07:32:49.166Z,95498.00
2018-07-31T07:35:20.892Z,95496.00
2018-07-31T07:37:52.686Z,95497.00
2018-07-31T07:40:24.665Z,95501.00
2018-07-31T07:42:56.706Z,95493.00
2018-07-31T07:45:28.738Z,95494.00
2018-07-31T07:48:00.795Z,95495.00
2018-07-31T07:50:32.594Z,95488.00
2018-07-31T07:53:03.898Z,95483.00
2018-07-31T07:55:35.262Z,95484.00
2018-07-31T07:58:07.750Z,95478.00
2018-07-31T08:00:39.914Z,95481.00
2018-07-31T08:03:11.995Z,95484.00
2018-07-31T08:05:44.009Z,95481.00
2018-07-31T08:08:16.005Z,95475.00
2018-07-31T08:10:47.994Z,95474.00
2018-07-31T08:13:19.866Z,95469.00
2018-07-31T08:15:51.878Z,95470.00
2018-07-31T08:18:23.766Z,95468.00
2018-07-31T08:20:55.946Z,95469.00
2018-07-31T08:23:27.898Z,95470.00
2018-07-31T08:26:00.130Z,95467.00
2018-07-31T08:28:32.121Z,95466.00
2018-07-31T08:31:04.146Z,95462.00
2018-07-31T08:33:36.093Z,95457.00
2018-07-31T08:36:08.206Z,95457.00
2018-07-31T08:38:40.094Z,95456.00
2018-07-31T08:41:11.667Z,95454.00
2018-07-31T08:43:43.434Z,95448.00
2018-07-31T08:46:15.355Z,95449.00
2018-07-31T08:48:47.184Z,95449.00
2018-07-31T08:51:19.109Z,95451.00
2018-07-31T08:53:50.966Z,95447.00
2018-07-31T08:56:22.507Z,95445.00
2018-07-31T08:58:54.618Z,95447.00
2018-07-31T09:01:26.686Z,95439.00
2018-07-31T09:03:58.666Z,95444.00
2018-07-31T09:06:30.694Z,95443.00
2018-07-31T09:09:02.640Z,95439.00
2018-07-31T09:11:34.683Z,95439.00
2018-07-31T09:14:08.066Z,95437.00
2018-07-31T09:16:40.028Z,95437.00
2018-07-31T09:19:11.934Z,95440.00
2018-07-31T09:21:44.018Z,95433.00
2018-07-31T09:24:15.860Z,95430.00
2018-07-31T09:26:47.706Z,95432.00
2018-07-31T09:29:19.586Z,95428.00
2018-07-31T09:31:51.586Z,95428.00
2018-07-31T09:34:23.468Z,95417.00
2018-07-31T09:36:55.388Z,95416.00
2018-07-31T09:39:27.326Z,95415.00
2018-07-31T09:41:59.313Z,95415.00
2018-07-31T09:44:31.139Z,95411.00
2018-07-31T09:47:02.998Z,95409.00
2018-07-31T09:49:35.174Z,95405.00
2018-07-31T09:52:08.011Z,95401.00
2018-07-31T09:54:39.916Z,95398.00
2018-07-31T09:57:12.085Z,95404.00
2018-07-31T09:59:43.795Z,95397.00
2018-07-31T10:02:15.509Z,95397.00
2018-07-31T10:04:47.488Z,95395.00
2018-07-31T10:07:19.581Z,95391.00
2018-07-31T10:09:51.617Z,95390.00
2018-07-31T10:12:23.529Z,95385.00
2018-07-31T10:14:55.427Z,95382.00
2018-07-31T10:17:27.486Z,95381.00
2018-07-31T10:19:59.327Z,95374.00
2018-07-31T10:22:30.835Z,95371.00
2018-07-31T10:25:02.476Z,95368.00
2018-07-31T10:27:34.366Z,95368.00
2018-07-31T10:30:07.494Z,95359.00
2018-07-31T10:32:39.519Z,95360.00
2018-07-31T10:35:11.967Z,95355.00
2018-07-31T10:37:43.972Z,95352.00
2018-07-31T10:40:15.865Z,95348.00
2018-07-31T10:42:47.306Z,95345.00
2018-07-31T10:45:18.728Z,95345.00
2018-07-31T10:47:50.458Z,95340.00
2018-07-31T10:50:22.395Z,95341.00
2018-07-31T10:52:54.569Z,95341.00
2018-07-31T10:55:26.427Z,95334.00
2018-07-31T10:57:58.593Z,95336.00
2018-07-31T11:00:30.468Z,95329.00
2018-07-31T11:03:03.298Z,95331.00
2018-07-31T11:05:35.201Z,95327.00
2018-07-31T11:08:07.230Z,95325.00
2018-07-31T11:10:38.940Z,95321.00
2018-07-31T11:13:10.181Z,95325.00
2018-07-31T11:15:41.940Z,95317.00
2018-07-31T11:18:13.908Z,95313.00
2018-07-31T11:20:45.766Z,95314.00
2018-07-31T11:23:17.648Z,95305.00
2018-07-31T11:25:49.541Z,95306.00
2018-07-31T11:28:21.554Z,95297.00
2018-07-31T11:30:53.427Z,95304.00
2018-07-31T11:33:25.377Z,95301.00
2018-07-31T11:35:57.746Z,95295.00
2018-07-31T11:38:29.288Z,95294.00
2018-07-31T11:41:01.048Z,95292.00
2018-07-31T11:43:33.070Z,95288.00
2018-07-31T11:46:05.063Z,95286.00
2018-07-31T11:48:37.149Z,95283.00
2018-07-31T11:51:09.000Z,95282.00
2018-07-31T11:53:40.975Z,95279.00
2018-07-31T11:56:12.890Z,95275.00
2018-07-31T11:58:44.394Z,95268.00
2018-07-31T12:01:16.036Z,95271.00
2018-07-31T12:03:47.767Z,95269.00
2018-07-31T12:06:19.487Z,95265.00
2018-07-31T12:08:51.535Z,95268.00
2018-07-31T12:11:23.010Z,95263.00
2018-07-31T12:13:54.986Z,95265.00
2018-07-31T12:16:26.643Z,95259.00
2018-07-31T12:18:58.514Z,95263.00
2018-07-31T12:21:30.192Z,95260.00
2018-07-31T12:24:01.426Z,95258.00
2018-07-31T12:26:32.925Z,95259.00
2018-07-31T12:29:04.648Z,95256.00
2018-07-31T12:31:36.591Z,95262.00
2018-07-31T12:34:08.442Z,95260.00
2018-07-31T12:36:40.256Z,95261.00
2018-07-31T12:39:13.160Z,95260.00
2018-07-31T12:41:44.665Z,95266.00
2018-07-31T12:44:16.296Z,95257.00
2018-07-31T12:46:48.142Z,95261.00
2018-07-31T12:49:19.977Z,95260.00
2018-07-31T12:51:51.749Z,95261.00
2018-07-31T12:54:23.535Z,95257.00
2018-07-31T12:56:54.863Z,95264.00
2018-07-31T12:59:26.540Z,95258.00
2018-07-31T13:01:57.875Z,95263.00
2018-07-31T13:04:30.339Z,95261.00
2018-07-31T13:07:02.487Z,95264.00
2018-07-31T13:09:34.361Z,95262.00
2018-07-31T13:12:06.179Z,95259.00
2018-07-31T13:14:38.153Z,95265.00
2018-07-31T13:17:09.988Z,95267.00
2018-07-31T13:19:42.110Z,95265.00
2018-07-31T13:22:14.047Z,95266.00
2018-07-31T13:24:45.875Z,95266.00
2018-07-31T13:27:17.616Z,95266.00
2018-07-31T13:29:49.545Z,95264.00
2018-07-31T13:32:22.205Z,95264.00
2018-07-31T13:34:54.660Z,95261.00
2018-07-31T13:37:26.546Z,95258.00
2018-07-31T13:39:58.526Z,95262.00
2018-07-31T13:42:30.398Z,95260.00
2018-07-31T13:45:02.314Z,95259.00
2018-07-31T13:47:33.745Z,95261.00
2018-07-31T13:50:05.873Z,95263.00
2018-07-31T13:52:38.015Z,95258.00
2018-07-31T13:55:10.024Z,95260.00
2018-07-31T13:57:42.061Z,95263.00
2018-07-31T14:00:14.062Z,95263.00
2018-07-31T14:02:46.046Z,95263.00
2018-07-31T14:05:19.169Z,95262.00
2018-07-31T14:07:51.296Z,95269.00
2018-07-31T14:10:23.778Z,95274.00
2018-07-31T14:12:55.650Z,95273.00
2018-07-31T14:15:27.554Z,95275.00
2018-07-31T14:17:59.046Z,95272.00
2018-07-31T14:20:30.838Z,95273.00
2018-07-31T14:23:02.861Z,95277.00
2018-07-31T14:25:34.545Z,95280.00
2018-07-31T14:28:06.316Z,95279.00
2018-07-31T14:30:38.453Z,95278.00
2018-07-31T14:33:10.039Z,95285.00
2018-07-31T14:35:41.321Z,95280.00
2018-07-31T14:38:13.084Z,95283.00
2018-07-31T14:40:45.526Z,95280.00
2018-07-31T14:43:17.774Z,95289.00
2018-07-31T14:45:49.803Z,95287.00
2018-07-31T14:48:22.978Z,95288.00
2018-07-31T14:50:55.276Z,95289.00
2018-07-31T14:53:28.017Z,95287.00
2018-07-31T14:56:00.042Z,95282.00
2018-07-31T14:58:31.802Z,95287.00
2018-07-31T15:01:03.818Z,95281.00
2018-07-31T15:03:35.691Z,95284.00
2018-07-31T15:06:07.834Z,95284.00
2018-07-31T15:08:40.493Z,95290.00
2018-07-31T15:11:12.267Z,95281.00
2018-07-31T15:13:43.733Z,95282.00
2018-07-31T15:16:15.493Z,95293.00
2018-07-31T15:18:47.046Z,95292.00
2018-07-31T15:21:18.908Z,95289.00
2018-07-31T15:23:50.902Z,95291.00
2018-07-31T15:26:22.994Z,95291.00
2018-07-31T15:28:55.079Z,95291.00
2018-07-31T15:31:27.297Z,95286.00
2018-07-31T15:33:59.997Z,95289.00
2018-07-31T15:36:32.069Z,95287.00
2018-07-31T15:39:03.626Z,95291.00
2018-07-31T15:41:35.678Z,95291.00
2018-07-31T15:44:07.847Z,95296.00
2018-07-31T15:46:40.166Z,95299.00
2018-07-31T15:49:12.555Z,95294.00
2018-07-31T15:51:44.764Z,95298.00
2018-07-31T15:54:16.912Z,95297.00
2018-07-31T15:56:48.285Z,95301.00
2018-07-31T15:59:19.906Z,95297.00
2018-07-31T16:01:52.228Z,95298.00
2018-07-31T16:04:23.974Z,95303.00
2018-07-31T16:06:55.391Z,95301.00
2018-07-31T16:09:27.088Z,95303.00
2018-07-31T16:11:59.349Z,95300.00
2018-07-31T16:14:31.454Z,95296.00
2018-07-31T16:17:03.506Z,95299.00
2018-07-31T16:19:35.489Z,95297.00
2018-07-31T16:22:07.327Z,95295.00
2018-07-31T16:24:39.523Z,95299.00
2018-07-31T16:27:11.695Z,95302.00
2018-07-31T16:29:43.749Z,95300.00
2018-07-31T16:32:15.351Z,95298.00
2018-07-31T16:34:47.211Z,95296.00
2018-07-31T16:37:19.367Z,95302.00
2018-07-31T16:39:51.636Z,95300.00
2018-07-31T16:42:23.700Z,95299.00
2018-07-31T16:44:55.506Z,95305.00
2018-07-31T16:47:27.178Z,95303.00
2018-07-31T16:49:59.126Z,95303.00
2018-07-31T16:52:31.209Z,95304.00
2018-07-31T16:55:03.212Z,95304.00
2018-07-31T16:57:36.253Z,95306.00
2018-07-31T17:00:08.640Z,95304.00
2018-07-31T17:02:40.675Z,95305.00
2018-07-31T17:05:12.648Z,95304.00
2018-07-31T17:07:44.695Z,95304.00
2018-07-31T17:10:16.711Z,95311.00
2018-07-31T17:12:48.226Z,95311.00
2018-07-31T17:15:20.231Z,95311.00
2018-07-31T17:17:52.306Z,95315.00
2018-07-31T17:20:23.302Z,95321.00
2018-07-31T17:22:55.085Z,95327.00
2018-07-31T17:25:27.089Z,95325.00
2018-07-31T17:27:59.064Z,95324.00
2018-07-31T17:30:31.551Z,95324.00
2018-07-31T17:33:03.534Z,95320.00
2018-07-31T17:35:38.044Z,95318.00
2018-07-31T17:38:10.256Z,95318.00
2018-07-31T17:40:42.135Z,95323.00
2018-07-31T17:43:14.234Z,95329.00
2018-07-31T17:45:46.235Z,95339.00
2018-07-31T17:48:18.506Z,95337.00
2018-07-31T17:50:51.466Z,95346.00
2018-07-31T17:53:23.805Z,95339.00
2018-07-31T17:55:55.966Z,95338.00
2018-07-31T17:58:28.032Z,95342.00
2018-07-31T18:00:59.801Z,95348.00
2018-07-31T18:03:31.790Z,95347.00
2018-07-31T18:06:04.098Z,95353.00
2018-07-31T18:08:35.598Z,95355.00
2018-07-31T18:11:07.407Z,95359.00
2018-07-31T18:13:39.489Z,95363.00
2018-07-31T18:16:11.966Z,95368.00
2018-07-31T18:18:43.947Z,95377.00
2018-07-31T18:21:15.965Z,95375.00
2018-07-31T18:23:48.185Z,95377.00
2018-07-31T18:26:19.488Z,95380.00
2018-07-31T18:28:50.786Z,95386.00
2018-07-31T18:31:22.627Z,95390.00
2018-07-31T18:33:54.727Z,95391.00
2018-07-31T18:36:26.666Z,95384.00
2018-07-31T18:38:59.707Z,95386.00
2018-07-31T18:41:32.235Z,95388.00
2018-07-31T18:44:04.736Z,95391.00
2018-07-31T18:46:37.228Z,95396.00
2018-07-31T18:49:09.466Z,95398.00
2018-07-31T18:51:40.938Z,95395.00
2018-07-31T18:54:12.649Z,95395.00
2018-07-31T18:56:44.436Z,95397.00
2018-07-31T18:59:16.476Z,95397.00
2018-07-31T19:01:48.533Z,95400.00
2018-07-31T19:04:20.579Z,95404.00
2018-07-31T19:06:52.582Z,95411.00
2018-07-31T19:09:24.603Z,95412.00
2018-07-31T19:11:56.793Z,95420.00
2018-07-31T19:14:28.453Z,95428.00
2018-07-31T19:17:00.247Z,95434.00
2018-07-31T19:19:32.391Z,95434.00
2018-07-31T19:22:04.499Z,95439.00
2018-07-31T19:24:36.615Z,95438.00
2018-07-31T19:27:08.707Z,95443.00
2018-07-31T19:29:40.977Z,95446.00
2018-07-31T19:32:15.964Z,95449.00
2018-07-31T19:34:49.370Z,95448.00
2018-07-31T19:37:21.666Z,95451.00
2018-07-31T19:39:53.349Z,95453.00
2018-07-31T19:42:25.329Z,95454.00
2018-07-31T19:44:58.888Z,95458.00
2018-07-31T19:47:31.015Z,95457.00
2018-07-31T19:50:03.123Z,95462.00
2018-07-31T19:52:35.422Z,95465.00
2018-07-31T19:55:08.448Z,95468.00
2018-07-31T19:57:41.050Z,95474.00
2018-07-31T20:00:14.351Z,95468.00
2018-07-31T20:02:46.466Z,95473.00
2018-07-31T20:05:18.442Z,95470.00
2018-07-31T20:07:50.418Z,95469.00
2018-07-31T20:10:22.489Z,95473.00
2018-07-31T20:12:54.367Z,95475.00
2018-07-31T20:15:26.969Z,95475.00
2018-07-31T20:17:58.501Z,95477.00
2018-07-31T20:20:31.227Z,95483.00
2018-07-31T20:23:03.131Z,95477.00
2018-07-31T20:25:35.272Z,95484.00
2018-07-31T20:28:08.727Z,95482.00
2018-07-31T20:30:41.759Z,95489.00
2018-07-31T20:33:13.593Z,95493.00
2018-07-31T20:35:45.601Z,95488.00
2018-07-31T20:38:17.581Z,95491.00
2018-07-31T20:40:49.566Z,95497.00
2018-07-31T20:43:22.071Z,95503.00
2018-07-31T20:45:54.570Z,95501.00
2018-07-31T20:48:27.427Z,95504.00
2018-07-31T20:50:59.538Z,95511.00
2018-07-31T20:53:36.692Z,95513.00
2018-07-31T20:56:08.830Z,95511.00
2018-07-31T20:58:40.927Z,95515.00
2018-07-31T21:01:13.171Z,95512.00
2018-07-31T21:03:45.400Z,95518.00
2018-07-31T21:06:17.539Z,95518.00
2018-07-31T21:08:49.723Z,95526.00
2018-07-31T21:11:21.879Z,95523.00
2018-07-31T21:13:53.169Z,95529.00
2018-07-31T21:16:25.114Z,95529.00
2018-07-31T21:18:56.672Z,95529.00
2018-07-31T21:21:28.589Z,95533.00
2018-07-31T21:24:00.698Z,95534.00
2018-07-31T21:26:32.272Z,95536.00
2018-07-31T21:29:04.003Z,95541.00
2018-07-31T21:31:35.962Z,95541.00
2018-07-31T21:34:07.486Z,95546.00
2018-07-31T21:36:39.186Z,95549.00
2018-07-31T21:39:13.289Z,95548.00
2018-07-31T21:41:44.778Z,95542.00
2018-07-31T21:44:16.018Z,95548.00
2018-07-31T21:46:47.741Z,95552.00
2018-07-31T21:49:19.159Z,95562.00
2018-07-31T21:51:50.957Z,95558.00
2018-07-31T21:54:22.896Z,95559.00
2018-07-31T21:56:54.663Z,95561.00
2018-07-31T21:59:26.630Z,95566.00
2018-07-31T22:01:58.439Z,95566.00
2018-07-31T22:04:30.802Z,95573.00
2018-07-31T22:07:02.858Z,95580.00
2018-07-31T22:09:49.111Z,95571.00
2018-07-31T22:12:21.138Z,95573.00
2018-07-31T22:14:53.039Z,95582.00
2018-07-31T22:17:25.148Z,95578.00
2018-07-31T22:19:57.006Z,95577.00
2018-07-31T22:22:28.989Z,95577.00
2018-07-31T22:25:01.021Z,95576.00
2018-07-31T22:27:33.041Z,95580.00
2018-07-31T22:30:04.764Z,95579.00
2018-07-31T22:32:36.718Z,95585.00
2018-07-31T22:35:08.600Z,95586.00
2018-07-31T22:37:40.538Z,95591.00
2018-07-31T22:40:12.422Z,95591.00
2018-07-31T22:42:43.927Z,95587.00
2018-07-31T22:45:15.594Z,95588.00
2018-07-31T22:47:47.062Z,95585.00
2018-07-31T22:50:18.767Z,95580.00
2018-07-31T22:52:50.668Z,95588.00
2018-07-31T22:55:22.063Z,95587.00
2018-07-31T22:57:53.748Z,95587.00
2018-07-31T23:00:25.166Z,95590.00
2018-07-31T23:02:56.922Z,95588.00
2018-07-31T23:05:28.846Z,95582.00
2018-07-31T23:08:00.807Z,95583.00
2018-07-31T23:10:32.773Z,95589.00
2018-07-31T23:13:04.753Z,95589.00
2018-07-31T23:15:36.610Z,95590.00
2018-07-31T23:18:08.566Z,95597.00
2018-07-31T23:20:40.500Z,95592.00
2018-07-31T23:23:12.474Z,95592.00
2018-07-31T23:25:44.397Z,95597.00
2018-07-31T23:28:16.454Z,95595.00
2018-07-31T23:30:48.281Z,95597.00
2018-07-31T23:33:20.206Z,95593.00
2018-07-31T23:35:52.146Z,95591.00
2018-07-31T23:38:23.578Z,95597.00
2018-07-31T23:40:55.253Z,95597.00
2018-07-31T23:43:27.147Z,95591.00
2018-07-31T23:45:59.068Z,95593.00
2018-07-31T23:48:31.049Z,95592.00
2018-07-31T23:51:02.986Z,95591.00
2018-07-31T23:53:35.945Z,95590.00
2018-07-31T23:56:07.886Z,95586.00
2018-07-31T23:58:39.806Z,95586.00
